sensor_id;sensor_type;location;lat;lon;timestamp;P1;durP1;ratioP1;P2;durP2;ratioP2
5718;SDS011;2884;47.734;9.244;2023-04-10T00:01:00;7.90;;;6.00;;
5718;SDS011;2884;47.734;9.244;2023-04-10T00:03:25;7.40;;;5.77;;
5718;SDS011;2884;47.734;9.244;2023-04-10T00:05:51;6.73;;;5.93;;
5718;SDS011;2884;47.734;9.244;2023-04-10T00:08:22;7.33;;;5.70;;
5718;SDS011;2884;47.734;9.244;2023-04-10T00:10:48;8.17;;;6.50;;
5718;SDS011;2884;47.734;9.244;2023-04-10T00:13:14;8.90;;;6.57;;
5718;SDS011;2884;47.734;9.244;2023-04-10T00:15:40;8.53;;;6.60;;
5718;SDS011;2884;47.734;9.244;2023-04-10T00:18:06;10.43;;;6.90;;
5718;SDS011;2884;47.734;9.244;2023-04-10T00:20:32;8.10;;;6.50;;
5718;SDS011;2884;47.734;9.244;2023-04-10T00:22:57;7.03;;;6.07;;
5718;SDS011;2884;47.734;9.244;2023-04-10T00:25:23;6.40;;;5.30;;
5718;SDS011;2884;47.734;9.244;2023-04-10T00:27:49;7.23;;;5.77;;
5718;SDS011;2884;47.734;9.244;2023-04-10T00:30:14;10.27;;;6.67;;
5718;SDS011;2884;47.734;9.244;2023-04-10T00:32:40;6.53;;;5.83;;
5718;SDS011;2884;47.734;9.244;2023-04-10T00:35:06;9.30;;;6.23;;
5718;SDS011;2884;47.734;9.244;2023-04-10T00:37:32;8.57;;;6.07;;
5718;SDS011;2884;47.734;9.244;2023-04-10T00:39:58;9.30;;;6.27;;
5718;SDS011;2884;47.734;9.244;2023-04-10T00:42:24;8.60;;;6.20;;
5718;SDS011;2884;47.734;9.244;2023-04-10T00:44:49;8.37;;;6.13;;
5718;SDS011;2884;47.734;9.244;2023-04-10T00:47:15;8.90;;;7.10;;
5718;SDS011;2884;47.734;9.244;2023-04-10T00:49:41;9.63;;;6.53;;
5718;SDS011;2884;47.734;9.244;2023-04-10T00:52:07;8.20;;;6.30;;
5718;SDS011;2884;47.734;9.244;2023-04-10T00:54:33;9.50;;;6.90;;
5718;SDS011;2884;47.734;9.244;2023-04-10T00:57:01;9.85;;;7.30;;
5718;SDS011;2884;47.734;9.244;2023-04-10T00:59:27;7.10;;;5.82;;
5718;SDS011;2884;47.734;9.244;2023-04-10T01:01:53;11.27;;;7.23;;
5718;SDS011;2884;47.734;9.244;2023-04-10T01:04:19;7.57;;;5.77;;
5718;SDS011;2884;47.734;9.244;2023-04-10T01:09:30;10.35;;;6.15;;
5718;SDS011;2884;47.734;9.244;2023-04-10T01:20:26;7.10;;;5.50;;
5718;SDS011;2884;47.734;9.244;2023-04-10T01:26:07;9.13;;;5.40;;
5718;SDS011;2884;47.734;9.244;2023-04-10T01:31:06;7.15;;;5.63;;
5718;SDS011;2884;47.734;9.244;2023-04-10T01:33:37;6.85;;;5.70;;
5718;SDS011;2884;47.734;9.244;2023-04-10T01:36:06;7.38;;;5.60;;
5718;SDS011;2884;47.734;9.244;2023-04-10T01:38:32;7.53;;;6.18;;
5718;SDS011;2884;47.734;9.244;2023-04-10T01:41:00;9.95;;;6.15;;
5718;SDS011;2884;47.734;9.244;2023-04-10T01:43:26;7.10;;;5.87;;
5718;SDS011;2884;47.734;9.244;2023-04-10T01:45:53;6.88;;;5.57;;
5718;SDS011;2884;47.734;9.244;2023-04-10T01:48:24;6.85;;;4.80;;
5718;SDS011;2884;47.734;9.244;2023-04-10T01:50:50;7.22;;;5.65;;
5718;SDS011;2884;47.734;9.244;2023-04-10T01:53:16;6.05;;;4.90;;
5718;SDS011;2884;47.734;9.244;2023-04-10T01:55:42;7.60;;;5.47;;
5718;SDS011;2884;47.734;9.244;2023-04-10T01:58:08;8.43;;;5.70;;
5718;SDS011;2884;47.734;9.244;2023-04-10T02:00:37;7.00;;;5.60;;
5718;SDS011;2884;47.734;9.244;2023-04-10T02:03:07;7.97;;;5.75;;
5718;SDS011;2884;47.734;9.244;2023-04-10T02:08:30;8.13;;;5.97;;
5718;SDS011;2884;47.734;9.244;2023-04-10T02:11:09;8.35;;;5.65;;
5718;SDS011;2884;47.734;9.244;2023-04-10T02:13:37;8.45;;;5.97;;
5718;SDS011;2884;47.734;9.244;2023-04-10T02:16:05;12.07;;;5.65;;
5718;SDS011;2884;47.734;9.244;2023-04-10T02:18:32;7.53;;;5.82;;
5718;SDS011;2884;47.734;9.244;2023-04-10T02:20:59;7.28;;;5.72;;
5718;SDS011;2884;47.734;9.244;2023-04-10T02:23:25;8.35;;;5.95;;
5718;SDS011;2884;47.734;9.244;2023-04-10T02:25:51;11.33;;;7.33;;
5718;SDS011;2884;47.734;9.244;2023-04-10T02:28:16;9.07;;;6.80;;
5718;SDS011;2884;47.734;9.244;2023-04-10T02:30:42;9.43;;;6.50;;
5718;SDS011;2884;47.734;9.244;2023-04-10T02:33:07;8.00;;;5.83;;
5718;SDS011;2884;47.734;9.244;2023-04-10T02:35:33;6.93;;;5.60;;
5718;SDS011;2884;47.734;9.244;2023-04-10T02:37:58;7.50;;;5.50;;
5718;SDS011;2884;47.734;9.244;2023-04-10T02:40:24;7.67;;;5.70;;
5718;SDS011;2884;47.734;9.244;2023-04-10T02:42:50;8.10;;;5.30;;
5718;SDS011;2884;47.734;9.244;2023-04-10T02:45:15;7.30;;;5.63;;
5718;SDS011;2884;47.734;9.244;2023-04-10T02:47:41;7.30;;;5.40;;
5718;SDS011;2884;47.734;9.244;2023-04-10T02:50:06;8.00;;;5.93;;
5718;SDS011;2884;47.734;9.244;2023-04-10T02:52:32;8.10;;;5.80;;
5718;SDS011;2884;47.734;9.244;2023-04-10T02:54:58;8.80;;;5.93;;
5718;SDS011;2884;47.734;9.244;2023-04-10T02:57:23;8.60;;;6.17;;
5718;SDS011;2884;47.734;9.244;2023-04-10T02:59:50;8.98;;;6.68;;
5718;SDS011;2884;47.734;9.244;2023-04-10T03:02:16;8.00;;;6.13;;
5718;SDS011;2884;47.734;9.244;2023-04-10T03:04:42;7.60;;;6.07;;
5718;SDS011;2884;47.734;9.244;2023-04-10T03:07:07;9.03;;;6.20;;
5718;SDS011;2884;47.734;9.244;2023-04-10T03:09:33;8.75;;;6.72;;
5718;SDS011;2884;47.734;9.244;2023-04-10T03:11:59;8.50;;;6.43;;
5718;SDS011;2884;47.734;9.244;2023-04-10T03:14:26;10.07;;;6.78;;
5718;SDS011;2884;47.734;9.244;2023-04-10T03:16:52;10.27;;;7.40;;
5718;SDS011;2884;47.734;9.244;2023-04-10T03:19:17;8.73;;;6.20;;
5718;SDS011;2884;47.734;9.244;2023-04-10T03:21:44;7.30;;;5.57;;
5718;SDS011;2884;47.734;9.244;2023-04-10T03:24:11;9.48;;;7.18;;
5718;SDS011;2884;47.734;9.244;2023-04-10T03:26:36;12.30;;;7.40;;
5718;SDS011;2884;47.734;9.244;2023-04-10T03:29:02;10.73;;;7.10;;
5718;SDS011;2884;47.734;9.244;2023-04-10T03:31:28;10.70;;;7.87;;
5718;SDS011;2884;47.734;9.244;2023-04-10T03:33:53;10.50;;;7.33;;
5718;SDS011;2884;47.734;9.244;2023-04-10T03:36:19;8.97;;;6.60;;
5718;SDS011;2884;47.734;9.244;2023-04-10T03:38:44;8.93;;;6.63;;
5718;SDS011;2884;47.734;9.244;2023-04-10T03:41:10;8.03;;;6.40;;
5718;SDS011;2884;47.734;9.244;2023-04-10T03:43:35;7.43;;;5.67;;
5718;SDS011;2884;47.734;9.244;2023-04-10T03:46:01;6.60;;;5.90;;
5718;SDS011;2884;47.734;9.244;2023-04-10T03:48:27;7.50;;;6.23;;
5718;SDS011;2884;47.734;9.244;2023-04-10T03:50:54;6.80;;;5.30;;
5718;SDS011;2884;47.734;9.244;2023-04-10T03:53:20;6.75;;;5.53;;
5718;SDS011;2884;47.734;9.244;2023-04-10T03:55:46;7.10;;;5.67;;
5718;SDS011;2884;47.734;9.244;2023-04-10T03:58:11;7.93;;;6.20;;
5718;SDS011;2884;47.734;9.244;2023-04-10T04:00:37;8.73;;;6.40;;
5718;SDS011;2884;47.734;9.244;2023-04-10T04:03:03;12.00;;;7.03;;
5718;SDS011;2884;47.734;9.244;2023-04-10T04:05:29;9.10;;;6.70;;
5718;SDS011;2884;47.734;9.244;2023-04-10T04:07:55;8.82;;;5.75;;
5718;SDS011;2884;47.734;9.244;2023-04-10T04:10:21;9.57;;;6.60;;
5718;SDS011;2884;47.734;9.244;2023-04-10T04:12:46;5.83;;;5.23;;
5718;SDS011;2884;47.734;9.244;2023-04-10T04:15:12;7.60;;;6.13;;
5718;SDS011;2884;47.734;9.244;2023-04-10T04:17:37;8.37;;;6.67;;
5718;SDS011;2884;47.734;9.244;2023-04-10T04:20:04;8.70;;;6.00;;
5718;SDS011;2884;47.734;9.244;2023-04-10T04:22:30;8.00;;;6.05;;
5718;SDS011;2884;47.734;9.244;2023-04-10T04:24:55;9.73;;;6.37;;
5718;SDS011;2884;47.734;9.244;2023-04-10T04:27:21;7.80;;;5.87;;
5718;SDS011;2884;47.734;9.244;2023-04-10T04:29:47;7.90;;;6.03;;
5718;SDS011;2884;47.734;9.244;2023-04-10T04:32:13;6.80;;;5.57;;
5718;SDS011;2884;47.734;9.244;2023-04-10T04:34:39;8.33;;;5.97;;
5718;SDS011;2884;47.734;9.244;2023-04-10T04:37:04;9.33;;;6.13;;
5718;SDS011;2884;47.734;9.244;2023-04-10T04:39:30;8.73;;;6.53;;
5718;SDS011;2884;47.734;9.244;2023-04-10T04:41:55;8.50;;;6.60;;
5718;SDS011;2884;47.734;9.244;2023-04-10T04:44:21;11.50;;;7.57;;
5718;SDS011;2884;47.734;9.244;2023-04-10T04:46:49;8.25;;;6.10;;
5718;SDS011;2884;47.734;9.244;2023-04-10T04:49:15;9.73;;;6.97;;
5718;SDS011;2884;47.734;9.244;2023-04-10T04:51:40;6.80;;;6.00;;
5718;SDS011;2884;47.734;9.244;2023-04-10T04:54:07;8.18;;;6.13;;
5718;SDS011;2884;47.734;9.244;2023-04-10T04:56:32;7.77;;;6.17;;
5718;SDS011;2884;47.734;9.244;2023-04-10T04:58:58;8.07;;;6.10;;
5718;SDS011;2884;47.734;9.244;2023-04-10T05:01:23;10.70;;;7.50;;
5718;SDS011;2884;47.734;9.244;2023-04-10T05:03:49;13.30;;;7.77;;
5718;SDS011;2884;47.734;9.244;2023-04-10T05:06:15;13.27;;;8.43;;
5718;SDS011;2884;47.734;9.244;2023-04-10T05:08:42;8.02;;;6.65;;
5718;SDS011;2884;47.734;9.244;2023-04-10T05:11:09;8.98;;;6.68;;
5718;SDS011;2884;47.734;9.244;2023-04-10T05:13:35;7.13;;;6.17;;
5718;SDS011;2884;47.734;9.244;2023-04-10T05:16:03;8.37;;;6.20;;
5718;SDS011;2884;47.734;9.244;2023-04-10T05:18:41;8.85;;;5.85;;
5718;SDS011;2884;47.734;9.244;2023-04-10T05:21:06;7.83;;;5.97;;
5718;SDS011;2884;47.734;9.244;2023-04-10T05:23:32;6.20;;;5.30;;
5718;SDS011;2884;47.734;9.244;2023-04-10T05:25:58;7.30;;;5.30;;
5718;SDS011;2884;47.734;9.244;2023-04-10T05:28:23;7.43;;;6.30;;
5718;SDS011;2884;47.734;9.244;2023-04-10T05:30:49;7.40;;;5.57;;
5718;SDS011;2884;47.734;9.244;2023-04-10T05:33:14;7.67;;;4.93;;
5718;SDS011;2884;47.734;9.244;2023-04-10T05:35:40;7.80;;;5.97;;
5718;SDS011;2884;47.734;9.244;2023-04-10T05:38:05;7.60;;;6.10;;
5718;SDS011;2884;47.734;9.244;2023-04-10T05:40:31;5.90;;;4.57;;
5718;SDS011;2884;47.734;9.244;2023-04-10T05:42:56;7.57;;;5.53;;
5718;SDS011;2884;47.734;9.244;2023-04-10T05:45:22;6.80;;;5.70;;
5718;SDS011;2884;47.734;9.244;2023-04-10T05:47:50;10.60;;;7.10;;
5718;SDS011;2884;47.734;9.244;2023-04-10T05:50:16;15.40;;;9.10;;
5718;SDS011;2884;47.734;9.244;2023-04-10T05:52:41;16.13;;;9.60;;
5718;SDS011;2884;47.734;9.244;2023-04-10T05:55:07;12.70;;;7.80;;
5718;SDS011;2884;47.734;9.244;2023-04-10T05:57:33;10.93;;;7.57;;
5718;SDS011;2884;47.734;9.244;2023-04-10T05:59:58;10.20;;;6.90;;
5718;SDS011;2884;47.734;9.244;2023-04-10T06:02:24;9.23;;;7.27;;
5718;SDS011;2884;47.734;9.244;2023-04-10T06:04:51;14.57;;;8.77;;
5718;SDS011;2884;47.734;9.244;2023-04-10T06:07:16;17.33;;;10.70;;
5718;SDS011;2884;47.734;9.244;2023-04-10T06:09:42;10.73;;;8.00;;
5718;SDS011;2884;47.734;9.244;2023-04-10T06:12:07;11.60;;;8.27;;
5718;SDS011;2884;47.734;9.244;2023-04-10T06:14:33;11.37;;;9.00;;
5718;SDS011;2884;47.734;9.244;2023-04-10T06:16:59;10.83;;;7.53;;
5718;SDS011;2884;47.734;9.244;2023-04-10T06:19:24;10.33;;;7.10;;
5718;SDS011;2884;47.734;9.244;2023-04-10T06:21:50;10.37;;;8.67;;
5718;SDS011;2884;47.734;9.244;2023-04-10T06:24:16;10.40;;;8.07;;
5718;SDS011;2884;47.734;9.244;2023-04-10T06:26:41;9.77;;;7.77;;
5718;SDS011;2884;47.734;9.244;2023-04-10T06:29:06;10.73;;;7.63;;
5718;SDS011;2884;47.734;9.244;2023-04-10T06:31:32;7.83;;;7.03;;
5718;SDS011;2884;47.734;9.244;2023-04-10T06:33:58;8.93;;;7.40;;
5718;SDS011;2884;47.734;9.244;2023-04-10T06:36:23;8.40;;;7.10;;
5718;SDS011;2884;47.734;9.244;2023-04-10T06:38:50;7.63;;;6.67;;
5718;SDS011;2884;47.734;9.244;2023-04-10T06:41:15;10.63;;;7.17;;
5718;SDS011;2884;47.734;9.244;2023-04-10T06:43:41;7.77;;;6.97;;
5718;SDS011;2884;47.734;9.244;2023-04-10T06:46:06;6.90;;;6.20;;
5718;SDS011;2884;47.734;9.244;2023-04-10T06:48:32;7.63;;;6.83;;
5718;SDS011;2884;47.734;9.244;2023-04-10T06:50:58;10.67;;;7.27;;
5718;SDS011;2884;47.734;9.244;2023-04-10T06:53:25;7.77;;;6.70;;
5718;SDS011;2884;47.734;9.244;2023-04-10T06:55:51;8.17;;;6.87;;
5718;SDS011;2884;47.734;9.244;2023-04-10T06:58:22;8.03;;;5.70;;
5718;SDS011;2884;47.734;9.244;2023-04-10T07:00:48;7.67;;;6.87;;
5718;SDS011;2884;47.734;9.244;2023-04-10T07:03:14;7.37;;;6.63;;
5718;SDS011;2884;47.734;9.244;2023-04-10T07:05:39;7.03;;;6.07;;
5718;SDS011;2884;47.734;9.244;2023-04-10T07:08:05;7.70;;;6.57;;
5718;SDS011;2884;47.734;9.244;2023-04-10T07:10:31;6.73;;;5.90;;
5718;SDS011;2884;47.734;9.244;2023-04-10T07:12:57;8.50;;;6.93;;
5718;SDS011;2884;47.734;9.244;2023-04-10T07:15:23;8.23;;;6.80;;
5718;SDS011;2884;47.734;9.244;2023-04-10T07:17:49;6.97;;;6.27;;
5718;SDS011;2884;47.734;9.244;2023-04-10T07:20:15;7.70;;;5.90;;
5718;SDS011;2884;47.734;9.244;2023-04-10T07:22:41;6.33;;;5.73;;
5718;SDS011;2884;47.734;9.244;2023-04-10T07:25:06;7.60;;;5.30;;
5718;SDS011;2884;47.734;9.244;2023-04-10T07:27:32;6.77;;;5.17;;
5718;SDS011;2884;47.734;9.244;2023-04-10T07:29:58;6.53;;;5.83;;
5718;SDS011;2884;47.734;9.244;2023-04-10T07:32:23;5.40;;;4.17;;
5718;SDS011;2884;47.734;9.244;2023-04-10T07:34:49;4.60;;;4.20;;
5718;SDS011;2884;47.734;9.244;2023-04-10T07:37:15;4.40;;;3.53;;
5718;SDS011;2884;47.734;9.244;2023-04-10T07:39:42;4.37;;;3.97;;
5718;SDS011;2884;47.734;9.244;2023-04-10T07:42:08;3.43;;;3.13;;
5718;SDS011;2884;47.734;9.244;2023-04-10T07:44:35;2.80;;;2.60;;
5718;SDS011;2884;47.734;9.244;2023-04-10T07:47:01;5.87;;;3.00;;
5718;SDS011;2884;47.734;9.244;2023-04-10T07:49:27;2.93;;;2.67;;
5718;SDS011;2884;47.734;9.244;2023-04-10T07:51:53;2.40;;;2.20;;
5718;SDS011;2884;47.734;9.244;2023-04-10T07:54:18;3.53;;;3.13;;
5718;SDS011;2884;47.734;9.244;2023-04-10T07:56:44;2.77;;;2.57;;
5718;SDS011;2884;47.734;9.244;2023-04-10T07:59:10;3.47;;;3.00;;
5718;SDS011;2884;47.734;9.244;2023-04-10T08:01:35;3.53;;;3.23;;
5718;SDS011;2884;47.734;9.244;2023-04-10T08:04:01;3.20;;;2.83;;
5718;SDS011;2884;47.734;9.244;2023-04-10T08:06:27;3.33;;;2.97;;
5718;SDS011;2884;47.734;9.244;2023-04-10T08:08:52;3.53;;;3.23;;
5718;SDS011;2884;47.734;9.244;2023-04-10T08:11:28;3.23;;;2.93;;
5718;SDS011;2884;47.734;9.244;2023-04-10T08:13:58;3.40;;;3.10;;
5718;SDS011;2884;47.734;9.244;2023-04-10T08:16:32;4.17;;;3.30;;
5718;SDS011;2884;47.734;9.244;2023-04-10T08:18:59;3.27;;;3.00;;
5718;SDS011;2884;47.734;9.244;2023-04-10T08:21:25;4.27;;;3.20;;
5718;SDS011;2884;47.734;9.244;2023-04-10T08:23:55;3.20;;;2.87;;
5718;SDS011;2884;47.734;9.244;2023-04-10T08:26:21;4.27;;;3.37;;
5718;SDS011;2884;47.734;9.244;2023-04-10T08:28:48;3.27;;;2.97;;
5718;SDS011;2884;47.734;9.244;2023-04-10T08:31:18;3.70;;;3.40;;
5718;SDS011;2884;47.734;9.244;2023-04-10T08:33:45;5.00;;;3.40;;
5718;SDS011;2884;47.734;9.244;2023-04-10T08:36:10;3.70;;;3.40;;
5718;SDS011;2884;47.734;9.244;2023-04-10T08:38:37;3.73;;;3.33;;
5718;SDS011;2884;47.734;9.244;2023-04-10T08:41:05;3.23;;;3.03;;
5718;SDS011;2884;47.734;9.244;2023-04-10T08:43:30;4.17;;;3.77;;
5718;SDS011;2884;47.734;9.244;2023-04-10T08:45:56;4.43;;;4.03;;
5718;SDS011;2884;47.734;9.244;2023-04-10T08:48:24;5.83;;;5.23;;
5718;SDS011;2884;47.734;9.244;2023-04-10T08:50:59;9.80;;;4.57;;
5718;SDS011;2884;47.734;9.244;2023-04-10T08:53:25;5.97;;;4.43;;
5718;SDS011;2884;47.734;9.244;2023-04-10T08:55:53;5.07;;;4.03;;
5718;SDS011;2884;47.734;9.244;2023-04-10T08:58:19;5.53;;;4.40;;
5718;SDS011;2884;47.734;9.244;2023-04-10T09:00:45;4.90;;;4.40;;
5718;SDS011;2884;47.734;9.244;2023-04-10T09:03:11;7.47;;;4.83;;
5718;SDS011;2884;47.734;9.244;2023-04-10T09:05:38;4.97;;;4.47;;
5718;SDS011;2884;47.734;9.244;2023-04-10T09:08:05;5.70;;;4.50;;
5718;SDS011;2884;47.734;9.244;2023-04-10T09:10:31;5.70;;;5.10;;
5718;SDS011;2884;47.734;9.244;2023-04-10T09:12:57;5.10;;;4.60;;
5718;SDS011;2884;47.734;9.244;2023-04-10T09:15:22;5.97;;;5.27;;
5718;SDS011;2884;47.734;9.244;2023-04-10T09:20:30;7.47;;;4.63;;
5718;SDS011;2884;47.734;9.244;2023-04-10T09:22:56;4.87;;;4.37;;
5718;SDS011;2884;47.734;9.244;2023-04-10T09:28:00;4.10;;;3.80;;
5718;SDS011;2884;47.734;9.244;2023-04-10T09:30:35;4.43;;;4.03;;
5718;SDS011;2884;47.734;9.244;2023-04-10T09:33:20;4.70;;;4.20;;
5718;SDS011;2884;47.734;9.244;2023-04-10T09:35:45;4.73;;;4.33;;
5718;SDS011;2884;47.734;9.244;2023-04-10T09:38:18;8.10;;;4.23;;
5718;SDS011;2884;47.734;9.244;2023-04-10T09:40:45;4.00;;;3.50;;
5718;SDS011;2884;47.734;9.244;2023-04-10T09:43:18;4.07;;;3.67;;
5718;SDS011;2884;47.734;9.244;2023-04-10T09:45:50;4.17;;;3.60;;
5718;SDS011;2884;47.734;9.244;2023-04-10T09:48:18;4.20;;;3.80;;
5718;SDS011;2884;47.734;9.244;2023-04-10T09:50:44;4.00;;;3.70;;
5718;SDS011;2884;47.734;9.244;2023-04-10T09:53:11;4.13;;;3.73;;
5718;SDS011;2884;47.734;9.244;2023-04-10T09:55:39;4.10;;;3.70;;
5718;SDS011;2884;47.734;9.244;2023-04-10T09:58:05;3.90;;;3.30;;
5718;SDS011;2884;47.734;9.244;2023-04-10T10:00:34;3.83;;;3.40;;
5718;SDS011;2884;47.734;9.244;2023-04-10T10:03:06;3.40;;;3.10;;
5718;SDS011;2884;47.734;9.244;2023-04-10T10:05:34;3.70;;;3.40;;
5718;SDS011;2884;47.734;9.244;2023-04-10T10:08:03;4.90;;;3.77;;
5718;SDS011;2884;47.734;9.244;2023-04-10T10:10:29;6.20;;;3.00;;
5718;SDS011;2884;47.734;9.244;2023-04-10T10:12:56;3.60;;;3.30;;
5718;SDS011;2884;47.734;9.244;2023-04-10T10:20:33;4.23;;;3.73;;
5718;SDS011;2884;47.734;9.244;2023-04-10T10:23:01;3.10;;;2.77;;
5718;SDS011;2884;47.734;9.244;2023-04-10T10:25:27;3.63;;;3.33;;
5718;SDS011;2884;47.734;9.244;2023-04-10T10:27:55;3.60;;;3.30;;
5718;SDS011;2884;47.734;9.244;2023-04-10T10:30:20;3.70;;;3.40;;
5718;SDS011;2884;47.734;9.244;2023-04-10T10:32:46;3.30;;;3.00;;
5718;SDS011;2884;47.734;9.244;2023-04-10T10:35:13;3.60;;;3.30;;
5718;SDS011;2884;47.734;9.244;2023-04-10T10:37:39;3.57;;;3.27;;
5718;SDS011;2884;47.734;9.244;2023-04-10T10:43:11;10.00;;;3.87;;
5718;SDS011;2884;47.734;9.244;2023-04-10T10:49:01;2.87;;;2.67;;
5718;SDS011;2884;47.734;9.244;2023-04-10T10:51:46;3.90;;;3.27;;
5718;SDS011;2884;47.734;9.244;2023-04-10T10:56:53;3.20;;;2.90;;
5718;SDS011;2884;47.734;9.244;2023-04-10T11:02:13;2.77;;;2.57;;
5718;SDS011;2884;47.734;9.244;2023-04-10T11:07:08;3.00;;;2.70;;
5718;SDS011;2884;47.734;9.244;2023-04-10T11:09:47;3.90;;;3.27;;
5718;SDS011;2884;47.734;9.244;2023-04-10T11:12:18;2.60;;;2.40;;
5718;SDS011;2884;47.734;9.244;2023-04-10T11:15:00;3.40;;;3.10;;
5718;SDS011;2884;47.734;9.244;2023-04-10T11:17:46;3.33;;;3.03;;
5718;SDS011;2884;47.734;9.244;2023-04-10T11:20:15;3.50;;;3.20;;
5718;SDS011;2884;47.734;9.244;2023-04-10T11:28:45;3.10;;;2.90;;
5718;SDS011;2884;47.734;9.244;2023-04-10T11:31:14;3.00;;;2.70;;
5718;SDS011;2884;47.734;9.244;2023-04-10T11:34:27;2.73;;;2.50;;
5718;SDS011;2884;47.734;9.244;2023-04-10T11:36:37;3.60;;;3.30;;
5718;SDS011;2884;47.734;9.244;2023-04-10T11:39:05;3.57;;;3.27;;
5718;SDS011;2884;47.734;9.244;2023-04-10T11:41:41;3.30;;;3.10;;
5718;SDS011;2884;47.734;9.244;2023-04-10T11:44:09;3.10;;;2.67;;
5718;SDS011;2884;47.734;9.244;2023-04-10T11:46:42;4.10;;;3.73;;
5718;SDS011;2884;47.734;9.244;2023-04-10T11:49:09;2.93;;;2.73;;
5718;SDS011;2884;47.734;9.244;2023-04-10T11:51:35;5.10;;;3.13;;
5718;SDS011;2884;47.734;9.244;2023-04-10T11:54:12;2.93;;;2.63;;
5718;SDS011;2884;47.734;9.244;2023-04-10T11:56:40;3.10;;;2.77;;
5718;SDS011;2884;47.734;9.244;2023-04-10T11:59:07;3.03;;;2.73;;
5718;SDS011;2884;47.734;9.244;2023-04-10T12:01:40;2.93;;;2.70;;
5718;SDS011;2884;47.734;9.244;2023-04-10T12:04:13;3.40;;;2.93;;
5718;SDS011;2884;47.734;9.244;2023-04-10T12:06:45;3.03;;;2.83;;
5718;SDS011;2884;47.734;9.244;2023-04-10T12:09:12;3.10;;;2.80;;
5718;SDS011;2884;47.734;9.244;2023-04-10T12:11:46;3.30;;;3.00;;
5718;SDS011;2884;47.734;9.244;2023-04-10T12:14:17;4.37;;;3.70;;
5718;SDS011;2884;47.734;9.244;2023-04-10T12:16:44;3.93;;;3.50;;
5718;SDS011;2884;47.734;9.244;2023-04-10T12:19:10;6.43;;;3.30;;
5718;SDS011;2884;47.734;9.244;2023-04-10T12:21:37;4.03;;;3.20;;
5718;SDS011;2884;47.734;9.244;2023-04-10T12:24:02;3.10;;;2.90;;
5718;SDS011;2884;47.734;9.244;2023-04-10T12:26:28;4.57;;;3.60;;
5718;SDS011;2884;47.734;9.244;2023-04-10T12:28:55;3.70;;;3.30;;
5718;SDS011;2884;47.734;9.244;2023-04-10T12:33:53;2.80;;;2.60;;
5718;SDS011;2884;47.734;9.244;2023-04-10T12:36:22;2.80;;;2.60;;
5718;SDS011;2884;47.734;9.244;2023-04-10T12:38:49;2.17;;;2.07;;
5718;SDS011;2884;47.734;9.244;2023-04-10T12:41:19;2.50;;;2.30;;
5718;SDS011;2884;47.734;9.244;2023-04-10T12:43:46;2.60;;;1.80;;
5718;SDS011;2884;47.734;9.244;2023-04-10T12:46:21;5.33;;;1.93;;
5718;SDS011;2884;47.734;9.244;2023-04-10T12:48:51;2.60;;;1.90;;
5718;SDS011;2884;47.734;9.244;2023-04-10T12:51:17;1.80;;;1.70;;
5718;SDS011;2884;47.734;9.244;2023-04-10T12:53:43;1.67;;;1.50;;
5718;SDS011;2884;47.734;9.244;2023-04-10T12:56:10;1.50;;;1.40;;
5718;SDS011;2884;47.734;9.244;2023-04-10T12:58:36;1.70;;;1.60;;
5718;SDS011;2884;47.734;9.244;2023-04-10T13:01:05;1.57;;;1.37;;
5718;SDS011;2884;47.734;9.244;2023-04-10T13:03:34;0.90;;;0.90;;
5718;SDS011;2884;47.734;9.244;2023-04-10T13:06:00;1.23;;;1.13;;
5718;SDS011;2884;47.734;9.244;2023-04-10T13:08:26;0.80;;;0.80;;
5718;SDS011;2884;47.734;9.244;2023-04-10T13:10:52;0.80;;;0.80;;
5718;SDS011;2884;47.734;9.244;2023-04-10T13:13:19;0.70;;;0.70;;
5718;SDS011;2884;47.734;9.244;2023-04-10T13:15:44;0.90;;;0.90;;
5718;SDS011;2884;47.734;9.244;2023-04-10T13:18:10;0.80;;;0.80;;
5718;SDS011;2884;47.734;9.244;2023-04-10T13:20:36;0.83;;;0.83;;
5718;SDS011;2884;47.734;9.244;2023-04-10T13:23:03;0.90;;;0.80;;
5718;SDS011;2884;47.734;9.244;2023-04-10T13:25:30;0.90;;;0.73;;
5718;SDS011;2884;47.734;9.244;2023-04-10T13:27:57;0.70;;;0.70;;
5718;SDS011;2884;47.734;9.244;2023-04-10T13:30:23;0.80;;;0.80;;
5718;SDS011;2884;47.734;9.244;2023-04-10T13:32:49;0.80;;;0.80;;
5718;SDS011;2884;47.734;9.244;2023-04-10T13:35:14;1.20;;;1.10;;
5718;SDS011;2884;47.734;9.244;2023-04-10T13:37:40;0.70;;;0.70;;
5718;SDS011;2884;47.734;9.244;2023-04-10T13:40:06;1.30;;;1.20;;
5718;SDS011;2884;47.734;9.244;2023-04-10T13:42:32;1.37;;;1.23;;
5718;SDS011;2884;47.734;9.244;2023-04-10T13:44:57;1.10;;;0.87;;
5718;SDS011;2884;47.734;9.244;2023-04-10T13:47:23;0.93;;;0.90;;
5718;SDS011;2884;47.734;9.244;2023-04-10T13:49:49;0.97;;;0.80;;
5718;SDS011;2884;47.734;9.244;2023-04-10T13:52:14;1.13;;;1.03;;
5718;SDS011;2884;47.734;9.244;2023-04-10T13:54:40;4.20;;;1.10;;
5718;SDS011;2884;47.734;9.244;2023-04-10T13:57:05;2.10;;;1.10;;
5718;SDS011;2884;47.734;9.244;2023-04-10T13:59:31;1.00;;;0.70;;
5718;SDS011;2884;47.734;9.244;2023-04-10T14:01:56;1.23;;;1.13;;
5718;SDS011;2884;47.734;9.244;2023-04-10T14:04:22;0.70;;;0.70;;
5718;SDS011;2884;47.734;9.244;2023-04-10T14:06:47;1.50;;;1.37;;
5718;SDS011;2884;47.734;9.244;2023-04-10T14:09:14;1.30;;;1.20;;
5718;SDS011;2884;47.734;9.244;2023-04-10T14:11:40;1.00;;;0.80;;
5718;SDS011;2884;47.734;9.244;2023-04-10T14:14:05;1.30;;;1.20;;
5718;SDS011;2884;47.734;9.244;2023-04-10T14:16:31;0.90;;;0.90;;
5718;SDS011;2884;47.734;9.244;2023-04-10T14:18:56;1.67;;;0.80;;
5718;SDS011;2884;47.734;9.244;2023-04-10T14:21:22;0.80;;;0.80;;
5718;SDS011;2884;47.734;9.244;2023-04-10T14:23:47;0.73;;;0.73;;
5718;SDS011;2884;47.734;9.244;2023-04-10T14:26:13;0.80;;;0.80;;
5718;SDS011;2884;47.734;9.244;2023-04-10T14:28:38;1.20;;;1.10;;
5718;SDS011;2884;47.734;9.244;2023-04-10T14:31:04;0.90;;;0.90;;
5718;SDS011;2884;47.734;9.244;2023-04-10T14:33:32;0.93;;;0.93;;
5718;SDS011;2884;47.734;9.244;2023-04-10T14:35:57;0.70;;;0.70;;
5718;SDS011;2884;47.734;9.244;2023-04-10T14:38:23;2.37;;;1.13;;
5718;SDS011;2884;47.734;9.244;2023-04-10T14:40:48;1.37;;;1.20;;
5718;SDS011;2884;47.734;9.244;2023-04-10T14:43:15;0.70;;;0.70;;
5718;SDS011;2884;47.734;9.244;2023-04-10T14:45:41;0.80;;;0.80;;
5718;SDS011;2884;47.734;9.244;2023-04-10T14:48:06;1.20;;;1.10;;
5718;SDS011;2884;47.734;9.244;2023-04-10T14:50:33;1.20;;;1.10;;
5718;SDS011;2884;47.734;9.244;2023-04-10T14:52:59;1.00;;;1.00;;
5718;SDS011;2884;47.734;9.244;2023-04-10T14:55:28;0.77;;;0.77;;
5718;SDS011;2884;47.734;9.244;2023-04-10T14:57:54;1.07;;;0.97;;
5718;SDS011;2884;47.734;9.244;2023-04-10T15:00:19;1.03;;;0.93;;
5718;SDS011;2884;47.734;9.244;2023-04-10T15:02:45;0.87;;;0.87;;
5718;SDS011;2884;47.734;9.244;2023-04-10T15:05:10;1.30;;;1.20;;
5718;SDS011;2884;47.734;9.244;2023-04-10T15:07:36;1.10;;;0.90;;
5718;SDS011;2884;47.734;9.244;2023-04-10T15:10:02;0.87;;;0.87;;
5718;SDS011;2884;47.734;9.244;2023-04-10T15:12:28;1.10;;;1.10;;
5718;SDS011;2884;47.734;9.244;2023-04-10T15:14:53;0.80;;;0.80;;
5718;SDS011;2884;47.734;9.244;2023-04-10T15:17:20;1.10;;;1.00;;
5718;SDS011;2884;47.734;9.244;2023-04-10T15:19:46;1.10;;;1.00;;
5718;SDS011;2884;47.734;9.244;2023-04-10T15:22:12;1.00;;;0.90;;
5718;SDS011;2884;47.734;9.244;2023-04-10T15:24:38;0.90;;;0.90;;
5718;SDS011;2884;47.734;9.244;2023-04-10T15:27:03;1.13;;;0.90;;
5718;SDS011;2884;47.734;9.244;2023-04-10T15:29:30;1.33;;;1.20;;
5718;SDS011;2884;47.734;9.244;2023-04-10T15:31:58;1.43;;;1.20;;
5718;SDS011;2884;47.734;9.244;2023-04-10T15:34:23;1.13;;;1.00;;
5718;SDS011;2884;47.734;9.244;2023-04-10T15:36:49;1.10;;;0.80;;
5718;SDS011;2884;47.734;9.244;2023-04-10T15:39:15;1.83;;;1.30;;
5718;SDS011;2884;47.734;9.244;2023-04-10T15:41:40;1.17;;;0.90;;
5718;SDS011;2884;47.734;9.244;2023-04-10T15:44:06;0.90;;;0.90;;
5718;SDS011;2884;47.734;9.244;2023-04-10T15:46:31;0.90;;;0.80;;
5718;SDS011;2884;47.734;9.244;2023-04-10T15:48:58;0.77;;;0.77;;
5718;SDS011;2884;47.734;9.244;2023-04-10T15:51:24;1.10;;;1.00;;
5718;SDS011;2884;47.734;9.244;2023-04-10T15:53:51;1.53;;;0.90;;
5718;SDS011;2884;47.734;9.244;2023-04-10T15:56:16;2.17;;;1.03;;
5718;SDS011;2884;47.734;9.244;2023-04-10T15:58:42;1.30;;;1.20;;
5718;SDS011;2884;47.734;9.244;2023-04-10T16:01:08;0.90;;;0.90;;
5718;SDS011;2884;47.734;9.244;2023-04-10T16:03:33;1.73;;;1.50;;
5718;SDS011;2884;47.734;9.244;2023-04-10T16:05:59;1.60;;;1.50;;